Time;durP1;ratioP1;P1;durP2;ratioP2;P2;SDS_P1;SDS_P2;PMS_P1;PMS_P2;Temp;Humidity;BMP_temperature;BMP_pressure;BME280_temperature;BME280_humidity;BME280_pressure;Samples;Min_cycle;Max_cycle;Signal;HPM_P1;HPM_P2
2022/02/07 00:00:57;;;;;;;6.53;1.32;;;;;;;1.78;97.42;96846.40;1709452;82;20946;-65
2022/02/07 00:03:30;;;;;;;7.60;1.77;;;;;;;1.77;97.42;96847.33;1690550;82;21205;-65
2022/02/07 00:05:47;;;;;;;5.00;1.47;;;;;;;1.74;97.35;96851.37;1716964;82;21068;-65
2022/02/07 00:08:15;;;;;;;5.25;1.15;;;;;;;1.74;97.44;96865.52;1718236;83;21013;-65
2022/02/07 00:10:42;;;;;;;6.25;1.60;;;;;;;1.76;97.35;96868.80;1690419;83;21585;-65
2022/02/07 00:13:09;;;;;;;4.00;0.80;;;;;;;1.73;97.46;96868.98;1703048;82;21653;-65
2022/02/07 00:15:36;;;;;;;2.92;1.00;;;;;;;1.74;97.43;96874.05;1708670;82;22363;-65
2022/02/07 00:18:05;;;;;;;6.40;1.43;;;;;;;1.76;97.38;96868.80;1688986;83;21065;-65
2022/02/07 00:20:32;;;;;;;4.60;0.80;;;;;;;1.75;97.29;96882.13;1708618;82;21650;-65
2022/02/07 00:22:59;;;;;;;5.08;1.05;;;;;;;1.74;97.29;96881.77;1726595;82;20953;-65
2022/02/07 00:25:26;;;;;;;3.75;0.72;;;;;;;1.73;97.20;96894.70;1717891;81;20961;-65
2022/02/07 00:27:53;;;;;;;4.60;1.20;;;;;;;1.72;97.28;96903.34;1722253;82;21115;-65
2022/02/07 00:30:22;;;;;;;7.78;1.35;;;;;;;1.71;97.32;96909.39;1719896;81;21530;-65
2022/02/07 00:32:49;;;;;;;6.15;1.15;;;;;;;1.71;97.40;96914.53;1707428;82;21017;-64
2022/02/07 00:35:19;;;;;;;4.50;1.42;;;;;;;1.71;97.31;96911.96;1685001;83;25128;-65
2022/02/07 00:37:48;;;;;;;3.42;1.15;;;;;;;1.71;97.24;96922.25;1703706;82;21588;-65
2022/02/07 00:45:39;;;;;;;5.78;1.35;;;;;;;1.69;97.10;96939.54;1710288;83;21069;-65
2022/02/07 00:48:00;;;;;;;7.67;1.60;;;;;;;1.70;97.19;96956.62;1681507;84;21585;-65
2022/02/07 00:50:23;;;;;;;5.60;1.05;;;;;;;1.73;97.11;96935.86;1700550;82;21056;-64
2022/02/07 00:52:50;;;;;;;11.45;1.72;;;;;;;1.75;97.18;96950.77;1704371;82;21673;-64
2022/02/07 00:55:16;;;;;;;3.00;1.10;;;;;;;1.75;97.16;96963.62;1704911;82;20951;-65
2022/02/07 00:57:43;;;;;;;5.37;1.20;;;;;;;1.78;97.15;96966.02;1719500;82;21017;-64
2022/02/07 01:00:10;;;;;;;3.60;1.02;;;;;;;1.78;97.08;96960.87;1689970;84;20953;-65
2022/02/07 01:02:38;;;;;;;3.25;1.05;;;;;;;1.78;97.12;96962.16;1719622;82;21077;-64
2022/02/07 01:05:06;;;;;;;2.90;1.30;;;;;;;1.82;96.93;96968.81;1729085;81;21597;-65
2022/02/07 01:07:33;;;;;;;5.45;1.10;;;;;;;1.81;96.98;96967.13;1731111;81;21028;-64
2022/02/07 01:10:00;;;;;;;1.92;0.88;;;;;;;1.81;97.01;96974.86;1715041;82;21302;-64
2022/02/07 01:12:54;;;;;;;6.97;1.70;;;;;;;1.83;96.99;96976.89;1721479;82;21032;-64
2022/02/07 01:47:55;;;;;;;5.08;1.55;;;;;;;1.82;96.97;96995.83;1602915;88;21050;-64
2022/02/07 01:55:42;;;;;;;7.33;1.15;;;;;;;1.86;96.95;97002.45;1617771;87;21601;-64
2022/02/07 01:58:10;;;;;;;3.22;1.20;;;;;;;1.87;96.90;97001.98;1627067;83;21223;-65
2022/02/07 02:00:40;;;;;;;9.18;1.60;;;;;;;1.87;96.67;97004.55;1691745;83;20953;-65
2022/02/07 02:03:07;;;;;;;7.70;1.35;;;;;;;1.85;96.66;97004.66;1689053;83;21058;-65
2022/02/07 02:05:37;;;;;;;6.50;1.52;;;;;;;1.86;96.68;97002.45;1688385;84;20977;-65
2022/02/07 02:08:10;;;;;;;6.47;1.30;;;;;;;1.86;96.74;97005.02;1671595;84;20935;-65
2022/02/07 02:10:41;;;;;;;7.65;1.75;;;;;;;1.86;96.62;97001.16;1705086;82;21085;-65
2022/02/07 02:13:11;;;;;;;10.55;1.50;;;;;;;1.85;96.63;97007.23;1700387;82;21211;-64
2022/02/07 02:15:46;;;;;;;6.55;1.37;;;;;;;1.84;96.60;97008.13;1709773;83;21049;-64
2022/02/07 02:47:57;;;;;;;6.45;1.15;;;;;;;1.84;96.59;97023.56;1707896;83;21067;-65
2022/02/07 02:50:32;;;;;;;2.60;1.10;;;;;;;1.81;96.52;97021.16;1708342;83;21845;-65
2022/02/07 02:53:05;;;;;;;3.20;0.90;;;;;;;1.77;96.39;97026.95;1659843;84;21092;-65
2022/02/07 02:55:36;;;;;;;7.50;1.10;;;;;;;1.70;96.35;97028.17;1716861;83;20953;-65
2022/02/07 02:58:04;;;;;;;7.17;1.10;;;;;;;1.70;96.47;97041.50;1676793;85;20990;-65
2022/02/07 03:00:32;;;;;;;3.33;1.10;;;;;;;1.68;96.42;97040.75;1705048;83;21094;-66
2022/02/07 03:02:58;;;;;;;;;;;;;;;1.67;96.49;97040.39;1688775;83;21207;-65
2022/02/07 03:05:25;;;;;;;7.40;1.42;;;;;;;1.68;96.50;97051.03;1727786;82;20133;-65
2022/02/07 03:07:52;;;;;;;8.20;1.25;;;;;;;1.68;96.48;97045.89;1721359;83;21092;-67
2022/02/07 03:10:40;;;;;;;4.47;1.20;;;;;;;1.68;96.46;97056.18;1698161;84;21641;-65
2022/02/07 03:13:12;;;;;;;6.28;1.22;;;;;;;1.66;96.32;97055.45;1721714;82;20957;-65
2022/02/07 03:18:16;;;;;;;4.12;1.30;;;;;;;1.70;96.12;97064.66;1675744;83;21040;-65
2022/02/07 03:20:43;;;;;;;4.17;0.80;;;;;;;1.60;96.32;97066.05;1678579;85;21525;-65
2022/02/07 03:23:10;;;;;;;4.65;1.20;;;;;;;1.59;96.39;97062.66;1711624;82;21179;-66
2022/02/07 03:25:36;;;;;;;6.30;1.15;;;;;;;1.53;96.41;97067.67;1701521;82;21079;-66
2022/02/07 03:28:04;;;;;;;4.97;1.73;;;;;;;1.49;96.26;97079.50;1703392;82;21087;-65
2022/02/07 03:30:30;;;;;;;;;;;;;;;1.44;96.20;97084.88;1721331;83;21039;-65
2022/02/07 03:32:57;;;;;;;7.12;1.60;;;;;;;1.41;96.25;97083.76;1721179;83;20191;-65
2022/02/07 03:35:24;;;;;;;5.93;1.20;;;;;;;1.44;96.53;97081.48;1693553;84;21087;-65
2022/02/07 03:37:50;;;;;;;4.80;0.90;;;;;;;1.44;96.39;97095.16;1717405;81;21001;-66
2022/02/07 03:40:20;;;;;;;5.33;1.27;;;;;;;1.45;96.33;97103.23;1726994;82;21094;-65
2022/02/07 03:42:47;;;;;;;7.90;1.47;;;;;;;1.46;96.42;97113.92;1714725;82;21001;-65
2022/02/07 03:45:13;;;;;;;4.50;1.02;;;;;;;1.47;96.37;97114.28;1713747;82;21040;-65
2022/02/07 03:47:40;;;;;;;3.03;1.27;;;;;;;1.49;96.38;97124.05;1722000;83;21590;-65
2022/02/07 03:50:09;;;;;;;4.95;1.10;;;;;;;1.52;96.36;97123.88;1698271;84;21533;-65
2022/02/07 03:52:35;;;;;;;6.28;1.15;;;;;;;1.53;96.38;97128.10;1719539;81;21088;-65
2022/02/07 03:55:03;;;;;;;5.37;1.10;;;;;;;1.54;96.33;97134.92;1723519;82;20961;-65
2022/02/07 03:57:29;;;;;;;10.20;1.20;;;;;;;1.55;96.23;97141.72;1727459;82;20989;-65
2022/02/07 03:59:56;;;;;;;6.12;1.42;;;;;;;1.53;96.12;97140.95;1715025;82;21020;-65
2022/02/07 04:02:23;;;;;;;5.45;1.50;;;;;;;1.53;96.22;97146.10;1724602;81;20957;-63
2022/02/07 04:05:03;;;;;;;4.15;1.17;;;;;;;1.54;96.16;97151.64;1728524;82;22544;-63
2022/02/07 04:07:22;;;;;;;5.95;1.55;;;;;;;1.55;96.34;97148.61;1699703;82;20970;-63
2022/02/07 04:09:53;;;;;;;9.05;1.60;;;;;;;1.58;96.28;97157.91;1682808;84;28796;-64
2022/02/07 04:12:22;;;;;;;5.72;2.15;;;;;;;1.59;96.30;97160.84;1702918;82;21013;-63
2022/02/07 04:14:45;;;;;;;3.37;1.05;;;;;;;1.61;96.38;97168.86;1681810;83;21032;-64
2022/02/07 04:17:18;;;;;;;4.83;1.00;;;;;;;1.62;96.28;97170.97;1682596;83;21120;-64
2022/02/07 04:19:41;;;;;;;5.75;1.40;;;;;;;1.58;96.20;97183.63;1715441;83;21558;-63
2022/02/07 04:22:08;;;;;;;8.53;1.72;;;;;;;1.55;96.22;97185.44;1682130;84;20961;-64
2022/02/07 04:24:36;;;;;;;7.95;1.75;;;;;;;1.53;96.26;97183.86;1718229;82;21005;-65
2022/02/07 04:27:04;;;;;;;7.55;1.75;;;;;;;1.53;96.34;97184.68;1703018;82;21055;-65
2022/02/07 04:29:31;;;;;;;5.03;1.42;;;;;;;1.53;96.33;97191.11;1702085;82;21613;-64
2022/02/07 04:31:58;;;;;;;;;;;;;;;1.53;96.36;97196.71;1714909;82;21009;-64
2022/02/07 04:34:24;;;;;;;7.20;1.50;;;;;;;1.48;96.29;97202.08;1704298;82;20607;-64
2022/02/07 04:36:56;;;;;;;5.62;2.00;;;;;;;1.44;96.26;97200.59;1672226;84;21537;-64
2022/02/07 04:39:19;;;;;;;6.40;1.77;;;;;;;1.40;96.38;97206.81;1712231;83;20891;-65
2022/02/07 04:41:46;;;;;;;6.08;1.72;;;;;;;1.39;96.48;97226.16;1661140;83;21957;-65
2022/02/07 04:44:20;;;;;;;7.10;1.17;;;;;;;1.39;96.51;97229.55;1680649;83;21001;-65
2022/02/07 04:46:59;;;;;;;6.92;1.62;;;;;;;1.40;96.58;97242.80;1722041;82;21029;-65
2022/02/07 04:52:01;;;;;;;3.37;1.20;;;;;;;1.40;96.62;97241.52;1678365;83;21098;-65
2022/02/07 04:57:18;;;;;;;4.97;1.50;;;;;;;1.41;96.51;97252.17;1697409;82;20961;-64
2022/02/07 05:02:21;;;;;;;6.33;1.32;;;;;;;1.38;96.42;97267.75;1685208;84;21539;-65
2022/02/07 05:04:43;;;;;;;3.67;1.35;;;;;;;1.37;96.37;97271.22;1698807;83;21065;-64
2022/02/07 05:15:21;;;;;;;4.85;1.30;;;;;;;1.20;96.04;97294.34;1698487;82;21045;-64
2022/02/07 05:17:48;;;;;;;4.53;1.00;;;;;;;1.23;95.87;97303.19;1697182;82;21569;-64
2022/02/07 05:20:14;;;;;;;6.35;1.02;;;;;;;1.25;95.85;97313.78;1676329;83;21085;-64
2022/02/07 05:22:41;;;;;;;5.13;1.50;;;;;;;1.21;95.98;97307.14;1695392;82;20961;-64
2022/02/07 05:25:08;;;;;;;4.40;1.25;;;;;;;1.22;95.80;97305.39;1697640;82;21045;-64
2022/02/07 05:27:38;;;;;;;3.35;1.00;;;;;;;1.17;95.54;97308.17;1696965;82;21138;-64
2022/02/07 05:30:08;;;;;;;4.72;1.17;;;;;;;1.15;95.64;97318.14;1703361;83;20976;-64
2022/02/07 05:32:35;;;;;;;4.72;1.80;;;;;;;1.13;95.73;97323.83;1706590;82;21038;-65
2022/02/07 05:35:02;;;;;;;3.87;1.40;;;;;;;1.15;95.87;97324.57;1688143;82;21016;-64
2022/02/07 05:37:31;;;;;;;7.20;1.77;;;;;;;1.18;95.92;97337.31;1706073;82;20946;-65
2022/02/07 05:40:05;;;;;;;4.15;1.10;;;;;;;1.20;95.92;97329.05;1698511;82;21049;-65
2022/02/07 05:42:26;;;;;;;4.45;1.05;;;;;;;1.24;96.02;97338.30;1698238;82;21076;-65
2022/02/07 05:44:52;;;;;;;6.15;1.17;;;;;;;1.25;95.89;97356.66;1701440;82;21524;-65
2022/02/07 05:47:19;;;;;;;4.17;1.07;;;;;;;1.25;95.77;97364.37;1701180;82;20997;-65
2022/02/07 05:49:47;;;;;;;3.50;0.70;;;;;;;1.25;95.73;97370.80;1700601;82;21040;-65
2022/02/07 05:52:14;;;;;;;2.37;1.10;;;;;;;1.21;95.62;97378.28;1701349;82;21883;-64
2022/02/07 05:54:41;;;;;;;2.95;1.22;;;;;;;1.16;95.57;97383.63;1706385;82;21000;-65
2022/02/07 05:57:07;;;;;;;6.92;1.87;;;;;;;1.10;95.54;97392.92;1705053;82;21112;-65
2022/02/07 05:59:34;;;;;;;2.87;0.88;;;;;;;1.03;95.43;97391.06;1699802;82;20921;-65
2022/02/07 06:02:01;;;;;;;6.63;0.97;;;;;;;0.98;95.40;97395.61;1701467;83;20981;-65
2022/02/07 06:04:28;;;;;;;3.20;0.80;;;;;;;0.95;95.51;97413.70;1717289;82;21087;-64
2022/02/07 06:06:55;;;;;;;7.15;1.10;;;;;;;0.93;95.57;97419.84;1665922;83;21012;-65
2022/02/07 06:09:23;;;;;;;3.75;1.10;;;;;;;0.91;95.64;97417.33;1702102;81;21478;-65
2022/02/07 06:11:49;;;;;;;3.40;1.12;;;;;;;0.90;95.66;97425.95;1696421;82;20961;-64
2022/02/07 06:14:16;;;;;;;2.20;0.75;;;;;;;0.86;95.64;97432.11;1711684;83;20996;-65
2022/02/07 06:16:42;;;;;;;9.70;0.93;;;;;;;0.83;95.67;97437.39;1685639;83;21103;-64
2022/02/07 06:19:09;;;;;;;2.55;1.30;;;;;;;0.80;95.63;97441.38;1715900;81;21634;-65
2022/02/07 06:21:37;;;;;;;5.20;1.43;;;;;;;0.78;95.71;97457.30;1670243;83;21624;-65
2022/02/07 06:24:05;;;;;;;7.90;1.40;;;;;;;0.78;95.84;97458.59;1723933;82;20954;-64
2022/02/07 06:26:32;;;;;;;2.12;0.82;;;;;;;0.82;95.93;97472.98;1700371;82;20905;-65
2022/02/07 06:29:01;;;;;;;5.47;1.03;;;;;;;0.81;95.85;97478.58;1724028;82;20962;-65
2022/02/07 06:31:28;;;;;;;2.22;0.85;;;;;;;0.81;95.80;97490.56;1717483;82;21033;-65
2022/02/07 06:33:55;;;;;;;7.05;1.07;;;;;;;0.81;95.80;97491.84;1702577;82;21611;-66
2022/02/07 06:36:22;;;;;;;1.82;0.85;;;;;;;0.81;95.74;97498.27;1701719;82;21509;-65
2022/02/07 06:38:49;;;;;;;6.97;2.00;;;;;;;0.81;95.76;97503.41;1693474;82;21593;-66
2022/02/07 06:41:16;;;;;;;3.55;1.20;;;;;;;0.81;95.67;97505.98;1702233;82;21571;-64
2022/02/07 06:43:43;;;;;;;4.78;0.95;;;;;;;0.79;95.59;97511.66;1663384;84;21642;-64
2022/02/07 06:46:10;;;;;;;5.10;0.93;;;;;;;0.78;95.57;97511.25;1704788;83;22350;-64
2022/02/07 06:48:37;;;;;;;2.87;1.60;;;;;;;0.76;95.59;97513.08;1682656;84;21588;-64
2022/02/07 06:51:06;;;;;;;3.63;1.47;;;;;;;0.75;95.59;97519.09;1718259;83;20969;-64
2022/02/07 06:53:34;;;;;;;5.87;1.00;;;;;;;0.76;95.75;97531.05;1711697;82;21593;-64
2022/02/07 06:56:00;;;;;;;;;;;;;;;0.78;95.83;97544.64;1718346;82;21067;-63
2022/02/07 06:58:29;;;;;;;5.17;1.30;;;;;;;0.80;95.73;97545.42;1718221;82;21190;-65
2022/02/07 07:00:59;;;;;;;2.75;1.02;;;;;;;0.76;95.61;97559.31;1709625;82;20957;-63
2022/02/07 07:03:25;;;;;;;4.50;1.17;;;;;;;0.72;95.57;97562.89;1669974;83;21040;-64
2022/02/07 07:05:54;;;;;;;4.47;1.30;;;;;;;0.66;95.39;97562.25;1658055;84;21139;-63
2022/02/07 07:08:21;;;;;;;2.70;0.90;;;;;;;0.60;95.39;97576.63;1643618;85;21090;-64
2022/02/07 07:10:49;;;;;;;;;;;;;;;0.59;95.52;97578.83;1675821;85;21956;-64
2022/02/07 07:13:23;;;;;;;3.85;0.88;;;;;;;0.58;95.59;97591.26;1662734;85;20297;-64
2022/02/07 07:15:52;;;;;;;5.12;1.15;;;;;;;0.55;95.66;97586.25;1672231;85;21030;-64
2022/02/07 07:18:17;;;;;;;6.37;1.52;;;;;;;0.54;95.72;97599.17;1677558;85;21044;-64
2022/02/07 07:20:50;;;;;;;4.28;1.10;;;;;;;0.55;95.89;97595.23;1690256;83;21019;-64
2022/02/07 07:23:17;;;;;;;6.15;1.17;;;;;;;0.59;95.96;97595.52;1681552;83;21112;-63
2022/02/07 07:26:05;;;;;;;7.10;1.50;;;;;;;0.63;96.12;97591.08;1647651;84;21307;-63
2022/02/07 07:28:50;;;;;;;5.12;2.10;;;;;;;0.76;96.17;97605.55;1817809;77;38900;-64
2022/02/07 07:31:18;;;;;;;4.28;1.40;;;;;;;0.80;96.01;97612.22;1804163;78;21050;-64
2022/02/07 07:33:50;;;;;;;4.08;1.00;;;;;;;0.87;95.88;97616.21;1812378;78;21956;-64
2022/02/07 07:36:13;;;;;;;3.67;0.95;;;;;;;0.91;95.94;97625.45;1747240;80;21626;-64
2022/02/07 07:38:40;;;;;;;5.47;1.53;;;;;;;0.93;95.96;97628.80;1758495;80;20998;-64
2022/02/07 07:41:07;;;;;;;5.42;1.50;;;;;;;0.99;95.95;97622.11;1743817;81;21077;-64
2022/02/07 07:43:33;;;;;;;7.47;1.32;;;;;;;1.05;96.03;97635.98;1747403;80;21011;-64
2022/02/07 07:46:11;;;;;;;10.05;1.57;;;;;;;1.18;96.12;97638.87;1755632;80;22189;-64
2022/02/07 07:48:36;;;;;;;3.52;0.93;;;;;;;1.29;96.05;97656.42;1775745;80;21131;-64
2022/02/07 07:51:20;;;;;;;5.78;1.47;;;;;;;1.26;95.51;97652.67;1746320;80;21088;-64
2022/02/07 08:04:14;;;;;;;1.85;1.07;;;;;;;0.56;96.72;97702.22;1736180;81;21073;-66
2022/02/07 08:06:47;;;;;;;3.27;0.85;;;;;;;0.49;96.14;97708.48;1742860;81;20963;-66
2022/02/07 08:11:42;;;;;;;3.70;1.42;;;;;;;0.49;96.22;97717.46;1725134;82;21969;-66
2022/02/07 08:14:08;;;;;;;5.70;1.20;;;;;;;0.55;96.21;97714.65;1726531;82;21188;-66
2022/02/07 08:16:35;;;;;;;3.27;1.17;;;;;;;0.58;96.13;97709.84;1720283;82;21584;-66
2022/02/07 08:19:08;;;;;;;2.92;1.37;;;;;;;0.69;96.28;97723.55;1719155;82;20955;-67
2022/02/07 08:21:35;;;;;;;5.35;1.65;;;;;;;0.85;96.45;97725.91;1724192;81;21090;-66
2022/02/07 08:24:02;;;;;;;3.40;1.37;;;;;;;0.99;96.25;97731.33;1726732;82;21955;-66
2022/02/07 08:26:29;;;;;;;3.45;1.07;;;;;;;1.06;96.01;97734.02;1733991;82;21569;-65
2022/02/07 08:28:56;;;;;;;;;;;;;;;1.13;95.84;97753.90;1727823;82;21038;-65
2022/02/07 08:31:24;;;;;;;2.33;1.20;;;;;;;1.08;95.94;97752.80;1724208;82;20447;-66
2022/02/07 08:33:51;;;;;;;3.55;1.20;;;;;;;1.08;96.04;97756.64;1727893;82;21086;-65
2022/02/07 08:36:18;;;;;;;5.65;1.42;;;;;;;1.13;96.16;97760.78;1718184;82;21119;-65
2022/02/07 08:38:46;;;;;;;4.05;1.40;;;;;;;1.10;96.11;97756.59;1723474;82;21048;-65
2022/02/07 08:41:13;;;;;;;9.25;1.98;;;;;;;1.13;96.34;97765.92;1720824;82;21021;-65
2022/02/07 08:43:42;;;;;;;4.70;1.30;;;;;;;1.20;96.47;97772.47;1724524;82;21055;-66
2022/02/07 08:46:08;;;;;;;5.15;1.35;;;;;;;1.29;96.43;97772.12;1719711;82;20973;-66
2022/02/07 08:48:37;;;;;;;2.92;1.20;;;;;;;1.44;96.70;97780.47;1722145;82;22520;-66
2022/02/07 08:51:06;;;;;;;5.92;1.72;;;;;;;1.60;96.72;97786.25;1724916;82;21089;-66
2022/02/07 08:53:41;;;;;;;7.30;1.95;;;;;;;1.69;96.39;97784.59;1721104;82;21076;-66
2022/02/07 08:56:05;;;;;;;6.03;1.32;;;;;;;1.68;96.06;97797.05;1724690;82;20994;-65
2022/02/07 08:58:34;;;;;;;;;;;;;;;1.66;95.90;97811.74;1727028;82;21009;-66
2022/02/07 09:09:05;;;;;;;5.65;1.05;;;;;;;1.66;96.03;97828.47;1712545;82;21053;-66
2022/02/07 09:11:21;;;;;;;5.10;1.60;;;;;;;1.63;95.58;97840.17;1709108;82;21578;-65
2022/02/07 09:13:48;;;;;;;;;;;;;;;1.63;95.84;97845.31;1721378;82;21072;-65
2022/02/07 09:16:29;;;;;;;6.12;1.50;;;;;;;1.70;96.29;97846.72;1711625;82;20135;-65
2022/02/07 09:18:49;;;;;;;6.87;1.80;;;;;;;1.70;96.29;97846.72;1711184;82;21492;-66
2022/02/07 09:21:30;;;;;;;6.55;1.20;;;;;;;1.84;96.33;97852.13;1716146;82;20985;-65
2022/02/07 09:23:47;;;;;;;5.03;1.27;;;;;;;1.96;96.14;97859.35;1715414;82;21052;-65
2022/02/07 09:26:14;;;;;;;5.15;1.32;;;;;;;2.09;96.14;97864.80;1711797;82;21113;-65
2022/02/07 09:28:42;;;;;;;8.87;1.70;;;;;;;2.12;95.88;97862.55;1718272;82;21013;-65
2022/02/07 09:31:13;;;;;;;9.63;2.12;;;;;;;2.17;96.02;97861.91;1715260;82;20974;-67
2022/02/07 09:33:46;;;;;;;4.80;1.47;;;;;;;2.26;96.08;97867.94;1714740;82;21642;-65
2022/02/07 09:36:15;;;;;;;5.10;1.72;;;;;;;2.41;96.28;97875.02;1712220;82;20954;-64
2022/02/07 09:38:45;;;;;;;10.55;2.12;;;;;;;2.61;96.14;97881.02;1718919;82;21555;-64
2022/02/07 09:41:20;;;;;;;10.05;2.33;;;;;;;2.70;95.95;97884.47;1716577;82;21110;-64
2022/02/07 09:43:51;;;;;;;10.10;2.65;;;;;;;2.78;95.70;97892.70;1720061;82;21026;-66
2022/02/07 09:46:35;;;;;;;5.50;1.60;;;;;;;2.86;95.80;97892.36;1711970;82;20975;-66
2022/02/07 09:48:52;;;;;;;5.80;1.75;;;;;;;3.10;96.12;97892.97;1716456;82;20966;-65
2022/02/07 09:51:19;;;;;;;6.60;2.17;;;;;;;3.21;95.95;97898.45;1717545;82;21077;-65
2022/02/07 09:53:46;;;;;;;9.03;2.15;;;;;;;3.31;95.87;97897.13;1710366;82;20927;-65
2022/02/07 09:56:13;;;;;;;8.60;1.63;;;;;;;3.40;95.60;97902.77;1712703;82;21018;-65
2022/02/07 09:58:41;;;;;;;5.30;1.35;;;;;;;3.35;95.21;97906.38;1714195;82;22257;-64
2022/02/07 10:01:16;;;;;;;6.45;1.80;;;;;;;3.28;94.85;97910.18;1715468;82;21033;-64
2022/02/07 10:04:03;;;;;;;3.70;1.47;;;;;;;3.36;95.02;97914.53;1721501;82;21580;-65
2022/02/07 10:06:40;;;;;;;5.78;1.20;;;;;;;3.35;94.94;97918.00;1719766;82;21088;-64
2022/02/07 10:09:25;;;;;;;8.05;1.87;;;;;;;3.38;94.91;97923.47;1721169;82;21029;-65
2022/02/07 10:14:48;;;;;;;5.10;1.55;;;;;;;3.68;95.20;97944.41;1719506;82;21021;-65
2022/02/07 10:19:56;;;;;;;6.58;1.65;;;;;;;3.78;95.05;97944.37;1720709;82;20223;-64
2022/02/07 10:44:57;;;;;;;3.90;1.30;;;;;;;3.67;92.71;97980.61;1719875;82;21319;-64
2022/02/07 10:47:25;;;;;;;5.95;1.20;;;;;;;3.59;90.94;97978.41;1712550;81;21127;-65
2022/02/07 10:50:11;;;;;;;4.33;1.35;;;;;;;3.60;91.96;97990.39;1712296;81;20986;-65
2022/02/07 10:52:54;;;;;;;5.25;1.30;;;;;;;3.59;92.51;97999.89;1715189;82;22280;-64
2022/02/07 10:55:33;;;;;;;4.37;1.47;;;;;;;3.58;92.30;98009.84;1721327;82;21037;-65
2022/02/07 10:58:05;;;;;;;5.75;1.62;;;;;;;3.57;91.98;98000.86;1725527;82;21243;-64
2022/02/07 11:00:38;;;;;;;7.12;1.70;;;;;;;3.58;92.60;97992.20;1722570;81;21782;-65
2022/02/07 11:03:09;;;;;;;5.20;1.40;;;;;;;3.65;92.31;97995.35;1719357;82;21007;-66
2022/02/07 11:05:43;;;;;;;8.50;1.82;;;;;;;3.74;92.54;98008.65;1717368;82;20942;-66
2022/02/07 11:08:19;;;;;;;6.08;1.57;;;;;;;3.59;91.04;98020.53;1716552;82;20986;-65
2022/02/07 11:11:03;;;;;;;8.70;1.60;;;;;;;3.63;92.27;98013.48;1717179;81;21638;-64
2022/02/07 11:13:41;;;;;;;6.35;1.65;;;;;;;3.61;91.99;98044.97;1717579;82;21719;-65
2022/02/07 11:15:59;;;;;;;5.67;2.02;;;;;;;3.49;90.64;98039.08;1718010;82;20922;-65
2022/02/07 11:18:29;;;;;;;6.87;1.90;;;;;;;3.57;91.68;98039.58;1698936;82;20999;-65
2022/02/07 11:21:03;;;;;;;7.97;1.50;;;;;;;3.52;89.63;98041.52;1716468;82;20997;-65
2022/02/07 11:23:49;;;;;;;4.47;1.55;;;;;;;3.58;90.48;98033.49;1708942;82;21991;-65
2022/02/07 11:26:40;;;;;;;4.62;1.32;;;;;;;3.72;91.18;98044.02;1716331;82;21284;-65
2022/02/07 11:28:59;;;;;;;5.58;1.27;;;;;;;3.66;89.62;98043.02;1707387;82;21026;-65
2022/02/07 11:31:34;;;;;;;5.80;2.00;;;;;;;3.59;91.22;98041.18;1713310;82;21042;-66
2022/02/07 11:34:13;;;;;;;7.45;1.85;;;;;;;3.64;91.32;98055.17;1715153;82;21046;-65
2022/02/07 11:36:42;;;;;;;4.15;1.40;;;;;;;3.74;90.93;98063.32;1716301;82;21146;-66
2022/02/07 11:39:13;;;;;;;6.53;1.55;;;;;;;3.83;91.40;98055.14;1712268;82;20942;-66
2022/02/07 11:42:02;;;;;;;7.72;1.70;;;;;;;3.85;91.18;98066.70;1710107;82;21126;-63
2022/02/07 11:44:45;;;;;;;4.53;1.42;;;;;;;3.85;91.13;98071.87;1716438;82;20930;-64
2022/02/07 11:47:25;;;;;;;2.70;0.93;;;;;;;3.71;89.81;98073.33;1707089;82;21015;-67
2022/02/07 11:49:56;;;;;;;3.08;0.98;;;;;;;3.65;89.95;98089.10;1706989;82;21918;-64
2022/02/07 11:52:42;;;;;;;4.62;1.10;;;;;;;3.50;88.78;98088.48;1709818;81;21118;-66
2022/02/07 11:55:16;;;;;;;2.40;1.15;;;;;;;3.51;90.01;98091.47;1709958;82;20928;-63
2022/02/07 11:58:00;;;;;;;3.58;1.10;;;;;;;3.50;89.73;98096.23;1711921;82;21515;-68
2022/02/07 12:00:35;;;;;;;7.72;1.22;;;;;;;3.53;89.68;98089.66;1711159;82;20991;-66
2022/02/07 12:03:08;;;;;;;5.67;1.47;;;;;;;3.50;88.77;98106.12;1711898;82;21205;-65
2022/02/07 12:05:46;;;;;;;7.58;1.37;;;;;;;3.42;88.02;98099.17;1707655;81;21097;-66
2022/02/07 12:08:24;;;;;;;4.78;1.30;;;;;;;3.37;88.86;98115.30;1709637;82;21038;-66
2022/02/07 12:11:07;;;;;;;6.15;1.37;;;;;;;3.31;88.25;98120.73;1691567;82;21082;-65
2022/02/07 12:13:42;;;;;;;8.28;2.02;;;;;;;3.18;86.05;98119.12;1714394;82;21073;-64
2022/02/07 12:16:21;;;;;;;6.42;1.40;;;;;;;3.20;87.98;98125.05;1709045;82;21508;-64
2022/02/07 12:19:10;;;;;;;8.13;1.27;;;;;;;3.28;88.67;98111.37;1712942;81;20993;-65
2022/02/07 12:21:39;;;;;;;8.38;1.62;;;;;;;3.32;88.71;98137.41;1710832;82;20998;-65
2022/02/07 12:24:08;;;;;;;4.47;1.67;;;;;;;3.40;88.93;98137.55;1708790;82;21563;-64
2022/02/07 12:26:42;;;;;;;7.53;2.12;;;;;;;3.42;88.58;98133.13;1715394;81;21069;-65
2022/02/07 12:29:24;;;;;;;9.63;1.70;;;;;;;3.41;88.56;98129.72;1715266;81;21173;-64
2022/02/07 12:31:42;;;;;;;5.30;1.25;;;;;;;3.46;88.81;98132.11;1719394;81;21185;-64
2022/02/07 12:34:13;;;;;;;;;;;;;;;3.61;88.89;98139.16;1714270;82;21002;-64
2022/02/07 12:36:40;;;;;;;5.92;1.20;;;;;;;3.78;88.17;98139.27;1691144;82;20092;-64
2022/02/07 12:39:16;;;;;;;8.33;1.42;;;;;;;3.87;86.97;98141.06;1717530;82;21049;-64
2022/02/07 12:41:44;;;;;;;5.35;1.65;;;;;;;3.91;87.59;98151.63;1711041;82;21099;-65
2022/02/07 12:44:18;;;;;;;6.28;1.70;;;;;;;3.77;86.44;98149.20;1719975;82;21077;-65
2022/02/07 12:46:45;;;;;;;6.17;1.37;;;;;;;3.71;87.51;98158.52;1713078;81;20989;-65
2022/02/07 12:49:36;;;;;;;5.58;1.67;;;;;;;3.69;86.39;98160.31;1651842;85;21647;-66
2022/02/07 12:52:04;;;;;;;8.23;1.70;;;;;;;3.67;87.22;98167.31;1646901;86;21065;-64
2022/02/07 12:54:37;;;;;;;5.85;2.22;;;;;;;3.62;87.28;98151.19;1634024;86;21246;-64
2022/02/07 12:57:05;;;;;;;6.03;1.17;;;;;;;3.58;87.02;98176.30;1635840;86;22300;-64
2022/02/07 12:59:33;;;;;;;6.87;1.35;;;;;;;3.43;85.14;98185.14;1649573;86;20923;-63
2022/02/07 13:02:00;;;;;;;7.42;1.00;;;;;;;3.30;85.59;98192.09;1647741;86;21127;-64
2022/02/07 13:04:29;;;;;;;8.33;1.40;;;;;;;3.26;85.74;98205.20;1618393;86;21715;-64
2022/02/07 13:07:03;;;;;;;4.30;1.52;;;;;;;3.22;85.86;98211.38;1637167;86;21289;-63
2022/02/07 13:09:33;;;;;;;9.43;1.20;;;;;;;3.23;86.30;98221.65;1636730;86;20985;-63
2022/02/07 13:12:14;;;;;;;6.12;1.40;;;;;;;3.27;86.20;98232.21;1639359;86;20996;-64
2022/02/07 13:14:47;;;;;;;5.90;1.35;;;;;;;3.25;86.41;98234.47;1642007;86;20989;-64
2022/02/07 13:17:18;;;;;;;6.92;1.67;;;;;;;3.22;85.84;98234.17;1642917;86;21199;-64
2022/02/07 13:19:48;;;;;;;5.53;1.52;;;;;;;3.15;86.06;98244.34;1634588;86;21079;-65
2022/02/07 13:22:21;;;;;;;5.15;1.55;;;;;;;3.13;86.05;98240.97;1638074;85;21129;-65
2022/02/07 13:24:55;;;;;;;6.50;1.75;;;;;;;3.14;86.37;98254.28;1642708;86;21005;-65
2022/02/07 13:27:23;;;;;;;7.00;1.55;;;;;;;3.15;86.60;98249.50;1642466;86;21027;-64
2022/02/07 13:29:56;;;;;;;5.72;1.50;;;;;;;3.20;85.62;98268.20;1640441;86;21140;-65
2022/02/07 13:32:30;;;;;;;7.58;1.62;;;;;;;3.27;85.94;98277.36;1632477;86;21140;-65
2022/02/07 13:35:13;;;;;;;5.85;2.00;;;;;;;3.36;86.29;98279.58;1626844;87;21577;-64
2022/02/07 13:37:43;;;;;;;6.95;1.72;;;;;;;3.35;85.27;98277.05;1629912;87;21009;-64
2022/02/07 13:40:21;;;;;;;8.83;1.72;;;;;;;3.39;85.57;98282.91;1659436;85;21578;-64
2022/02/07 13:42:50;;;;;;;;;;;;;;;3.38;85.91;98286.41;1652216;86;21084;-64
2022/02/07 13:45:22;;;;;;;8.53;1.37;;;;;;;3.36;86.17;98304.52;1638638;86;21098;-64
2022/02/07 13:47:52;;;;;;;8.58;1.50;;;;;;;3.27;85.38;98310.89;1634946;86;21044;-64
2022/02/07 13:50:23;;;;;;;5.87;1.57;;;;;;;3.22;85.96;98316.71;1635713;86;21043;-64
2022/02/07 13:52:53;;;;;;;7.47;1.60;;;;;;;3.19;85.66;98319.38;1637371;86;21652;-66
2022/02/07 13:55:32;;;;;;;11.53;1.90;;;;;;;3.17;85.52;98315.22;1637049;86;21617;-64
2022/02/07 13:58:01;;;;;;;7.80;1.62;;;;;;;3.17;85.01;98324.24;1636717;86;21161;-64
2022/02/07 14:00:38;;;;;;;10.70;1.57;;;;;;;3.21;86.05;98336.94;1644466;86;21077;-64
2022/02/07 14:03:33;;;;;;;6.12;1.92;;;;;;;3.24;85.97;98334.23;1613440;88;21125;-64
2022/02/07 14:06:07;;;;;;;7.83;1.77;;;;;;;3.24;86.09;98352.29;1633654;86;21129;-65
2022/02/07 14:08:56;;;;;;;7.87;2.02;;;;;;;3.17;84.98;98344.88;1613419;87;21630;-65
2022/02/07 14:11:26;;;;;;;8.68;1.98;;;;;;;3.12;85.61;98360.52;1630827;86;21362;-64
2022/02/07 14:13:56;;;;;;;7.17;1.95;;;;;;;3.00;86.20;98359.72;1628551;86;20977;-65
2022/02/07 14:16:26;;;;;;;8.63;2.20;;;;;;;2.91;86.03;98375.92;1627645;87;20976;-64
2022/02/07 14:18:54;;;;;;;10.78;2.30;;;;;;;2.95;85.88;98375.80;1628404;86;20974;-64